createdAt,value
2023-05-24T00:00:23.159Z,10.84
2023-05-24T00:01:23.118Z,10.76
2023-05-24T00:02:23.213Z,10.76
2023-05-24T00:03:23.234Z,10.87
2023-05-24T00:04:23.231Z,10.89
2023-05-24T00:05:22.978Z,10.90
2023-05-24T00:06:22.948Z,10.87
2023-05-24T00:07:22.917Z,10.92
2023-05-24T00:08:22.948Z,10.94
2023-05-24T00:09:22.850Z,10.92
2023-05-24T00:10:22.824Z,10.90
2023-05-24T00:11:22.788Z,10.89
2023-05-24T00:12:22.762Z,10.92
2023-05-24T00:13:22.718Z,10.94
2023-05-24T00:14:22.739Z,10.86
2023-05-24T00:15:22.667Z,10.96
2023-05-24T00:16:22.700Z,10.90
2023-05-24T00:17:22.635Z,10.93
2023-05-24T00:18:22.604Z,10.99
2023-05-24T00:19:22.534Z,10.99
2023-05-24T00:20:22.525Z,11.00
2023-05-24T00:21:22.458Z,10.94
2023-05-24T00:22:22.424Z,11.04
2023-05-24T00:23:22.459Z,10.93
2023-05-24T00:24:22.363Z,10.99
2023-05-24T00:25:22.341Z,10.93
2023-05-24T00:26:22.318Z,11.07
2023-05-24T00:27:22.249Z,10.93
2023-05-24T00:28:22.208Z,10.93
2023-05-24T00:29:22.254Z,11.04
2023-05-24T00:30:22.152Z,11.07
2023-05-24T00:31:22.134Z,11.05
2023-05-24T00:32:22.104Z,11.05
2023-05-24T00:33:22.059Z,11.02
2023-05-24T00:34:22.026Z,11.04
2023-05-24T00:35:22.047Z,11.04
2023-05-24T00:36:21.964Z,11.05
2023-05-24T00:37:21.919Z,11.02
2023-05-24T00:38:21.897Z,10.99
2023-05-24T00:39:21.857Z,11.04
2023-05-24T00:40:21.833Z,10.97
2023-05-24T00:41:21.852Z,10.97
2023-05-24T00:42:21.760Z,11.02
2023-05-24T00:43:21.750Z,10.97
2023-05-24T00:44:21.710Z,11.00
2023-05-24T00:45:21.664Z,11.05
2023-05-24T00:46:21.652Z,11.04
2023-05-24T00:47:21.697Z,11.05
2023-05-24T00:48:21.562Z,11.00
2023-05-24T00:49:21.523Z,11.04
2023-05-24T00:50:21.501Z,10.97
2023-05-24T00:51:21.542Z,10.93
2023-05-24T00:52:21.476Z,10.97
2023-05-24T00:53:21.405Z,10.92
2023-05-24T00:54:21.363Z,10.94
2023-05-24T00:55:21.319Z,10.92
2023-05-24T00:56:21.301Z,10.90
2023-05-24T00:57:21.326Z,10.90
2023-05-24T00:58:21.232Z,10.94
2023-05-24T00:59:21.198Z,10.90
2023-05-24T01:00:21.175Z,10.94
2023-05-24T01:01:21.819Z,10.94
2023-05-24T01:02:21.706Z,11.00
2023-05-24T01:03:21.192Z,10.87
2023-05-24T01:04:21.032Z,11.00
2023-05-24T01:05:21.023Z,11.00
2023-05-24T01:06:20.985Z,10.96
2023-05-24T01:07:20.947Z,11.02
2023-05-24T01:08:20.912Z,10.94
2023-05-24T01:09:20.938Z,10.97
2023-05-24T01:10:20.843Z,10.96
2023-05-24T01:11:22.683Z,10.99
2023-05-24T01:12:20.798Z,10.97
2023-05-24T01:13:20.735Z,10.96
2023-05-24T01:14:20.784Z,11.02
2023-05-24T01:15:20.705Z,10.97
2023-05-24T01:16:20.682Z,10.99
2023-05-24T01:17:20.611Z,10.96
2023-05-24T01:18:21.185Z,10.93
2023-05-24T01:19:20.551Z,10.96
2023-05-24T01:20:20.656Z,10.97
2023-05-24T01:21:20.471Z,11.10
2023-05-24T01:22:20.441Z,11.05
2023-05-24T01:23:20.413Z,11.04
2023-05-24T01:24:20.417Z,11.00
2023-05-24T01:25:20.346Z,10.96
2023-05-24T01:26:20.378Z,11.04
2023-05-24T01:27:20.270Z,11.00
2023-05-24T01:28:20.242Z,11.07
2023-05-24T01:29:20.209Z,11.11
2023-05-24T01:30:20.214Z,11.10
2023-05-24T01:31:20.229Z,11.10
2023-05-24T01:32:20.238Z,11.15
2023-05-24T01:33:20.155Z,10.99
2023-05-24T01:34:20.054Z,11.10
2023-05-24T01:35:20.016Z,10.99
2023-05-24T01:36:20.003Z,11.05
2023-05-24T01:37:19.944Z,11.08
2023-05-24T01:38:19.908Z,11.02
2023-05-24T01:39:19.933Z,11.12
2023-05-24T01:40:19.898Z,11.07
2023-05-24T01:41:19.814Z,11.05
2023-05-24T01:42:19.783Z,11.02
2023-05-24T01:43:20.303Z,11.10
2023-05-24T01:44:19.876Z,11.14
2023-05-24T01:45:19.689Z,11.14
2023-05-24T01:46:19.693Z,11.07
2023-05-24T01:47:19.627Z,11.12
2023-05-24T01:48:19.643Z,11.14
2023-05-24T01:49:19.545Z,11.14
2023-05-24T01:50:19.588Z,11.14
2023-05-24T01:51:19.489Z,11.17
2023-05-24T01:52:19.501Z,11.05
2023-05-24T01:53:19.422Z,11.04
2023-05-24T01:54:19.390Z,11.15
2023-05-24T01:55:19.350Z,11.14
2023-05-24T01:56:19.378Z,11.11
2023-05-24T01:57:19.285Z,11.07
2023-05-24T01:58:19.253Z,11.02
2023-05-24T01:59:19.289Z,11.17
2023-05-24T02:00:19.232Z,11.02
2023-05-24T02:01:19.196Z,11.02
2023-05-24T02:02:19.173Z,11.05
2023-05-24T02:03:19.109Z,11.04
2023-05-24T02:04:19.058Z,11.05
2023-05-24T02:05:19.084Z,11.08
2023-05-24T02:06:19.014Z,11.05
2023-05-24T02:07:18.951Z,11.12
2023-05-24T02:08:18.923Z,11.05
2023-05-24T02:09:18.888Z,10.99
2023-05-24T02:10:18.982Z,11.02
2023-05-24T02:11:18.834Z,11.05
2023-05-24T02:12:18.801Z,11.11
2023-05-24T02:13:18.766Z,11.07
2023-05-24T02:14:18.732Z,10.97
2023-05-24T02:15:18.748Z,11.05
2023-05-24T02:16:18.726Z,11.07
2023-05-24T02:17:18.631Z,11.07
2023-05-24T02:18:18.635Z,11.00
2023-05-24T02:19:18.564Z,11.00
2023-05-24T02:20:18.635Z,11.04
2023-05-24T02:21:18.498Z,11.10
2023-05-24T02:22:18.465Z,10.99
2023-05-24T02:23:18.436Z,11.02
2023-05-24T02:24:18.404Z,11.05
2023-05-24T02:25:18.367Z,11.00
2023-05-24T02:26:18.399Z,11.05
2023-05-24T02:27:18.303Z,11.02
2023-05-24T02:28:18.265Z,10.99
2023-05-24T02:29:18.232Z,11.08
2023-05-24T02:30:18.200Z,11.07
2023-05-24T02:31:18.186Z,11.00
2023-05-24T02:32:18.198Z,10.96
2023-05-24T02:33:18.107Z,11.02
2023-05-24T02:34:18.072Z,11.04
2023-05-24T02:35:18.031Z,11.05
2023-05-24T02:36:18.004Z,10.94
2023-05-24T02:37:17.971Z,10.97
2023-05-24T02:38:17.996Z,10.99
2023-05-24T02:39:17.902Z,11.04
2023-05-24T02:40:17.898Z,10.97
2023-05-24T02:41:17.859Z,10.99
2023-05-24T02:42:17.807Z,11.00
2023-05-24T02:43:17.772Z,11.07
2023-05-24T02:44:17.813Z,11.07
2023-05-24T02:45:17.719Z,11.04
2023-05-24T02:46:17.689Z,10.97
2023-05-24T02:47:18.315Z,11.04
2023-05-24T02:48:17.642Z,11.07
2023-05-24T02:49:17.565Z,10.96
2023-05-24T02:50:17.604Z,10.96
2023-05-24T02:51:17.501Z,10.99
2023-05-24T02:52:17.475Z,10.87
2023-05-24T02:53:17.457Z,10.90
2023-05-24T02:54:17.411Z,10.92
2023-05-24T02:55:17.372Z,10.90
2023-05-24T02:56:17.416Z,10.96
2023-05-24T02:57:17.312Z,10.97
2023-05-24T02:58:17.276Z,11.07
2023-05-24T02:59:17.250Z,11.05
2023-05-24T03:00:17.230Z,11.04
2023-05-24T03:01:17.233Z,11.04
2023-05-24T03:02:17.202Z,11.05
2023-05-24T03:03:17.171Z,11.02
2023-05-24T03:04:17.077Z,11.14
2023-05-24T03:05:17.042Z,11.07
2023-05-24T03:06:17.016Z,11.00
2023-05-24T03:07:17.095Z,10.93
2023-05-24T03:08:16.947Z,10.99
2023-05-24T03:09:16.934Z,10.96
2023-05-24T03:10:16.869Z,10.90
2023-05-24T03:11:17.815Z,10.97
2023-05-24T03:12:16.869Z,10.99
2023-05-24T03:13:16.781Z,10.94
2023-05-24T03:14:16.757Z,10.99
2023-05-24T03:15:16.711Z,10.90
2023-05-24T03:16:16.724Z,10.89
2023-05-24T03:17:16.696Z,10.99
2023-05-24T03:18:16.613Z,10.96
2023-05-24T03:19:16.613Z,10.97
2023-05-24T03:20:16.570Z,11.00
2023-05-24T03:21:16.584Z,10.92
2023-05-24T03:22:16.573Z,10.96
2023-05-24T03:23:16.439Z,10.99
2023-05-24T03:24:17.212Z,10.99
2023-05-24T03:25:16.398Z,11.04
2023-05-24T03:26:16.354Z,11.00
2023-05-24T03:27:16.378Z,11.04
2023-05-24T03:28:16.293Z,11.02
2023-05-24T03:29:16.256Z,11.02
2023-05-24T03:30:16.229Z,10.96
2023-05-24T03:31:16.189Z,11.07
2023-05-24T03:32:16.158Z,11.05
2023-05-24T03:33:16.213Z,11.05
2023-05-24T03:34:16.827Z,11.00
2023-05-24T03:35:16.061Z,10.99
2023-05-24T03:36:16.017Z,11.00
2023-05-24T03:37:15.995Z,11.07
2023-05-24T03:38:15.965Z,10.93
2023-05-24T03:39:15.983Z,11.07
2023-05-24T03:40:15.900Z,11.07
2023-05-24T03:41:15.858Z,11.02
2023-05-24T03:42:15.834Z,11.08
2023-05-24T03:43:15.804Z,11.07
2023-05-24T03:44:15.776Z,11.04
2023-05-24T03:45:21.501Z,11.02
2023-05-24T03:46:15.731Z,10.97
2023-05-24T03:47:15.670Z,10.97
2023-05-24T03:48:15.622Z,10.97
2023-05-24T03:49:15.654Z,11.04
2023-05-24T03:50:15.557Z,10.96
2023-05-24T03:51:15.529Z,10.96
2023-05-24T03:52:15.512Z,11.00
2023-05-24T03:53:15.469Z,10.96
2023-05-24T03:54:15.491Z,11.04
2023-05-24T03:55:15.390Z,11.02
2023-05-24T03:56:15.367Z,11.04
2023-05-24T03:57:15.347Z,11.04
2023-05-24T03:58:15.302Z,11.07
2023-05-24T03:59:15.262Z,11.04
2023-05-24T04:00:15.278Z,11.00
2023-05-24T04:03:07.874Z,11.07
2023-05-24T04:03:46.863Z,10.99
2023-05-24T04:04:46.729Z,11.07
2023-05-24T04:05:46.826Z,11.11
2023-05-24T04:06:46.655Z,11.10
2023-05-24T04:07:46.673Z,11.10
2023-05-24T04:08:46.599Z,11.10
2023-05-24T04:09:46.561Z,11.18
2023-05-24T04:10:46.579Z,11.17
2023-05-24T04:11:46.568Z,11.07
2023-05-24T04:12:46.479Z,11.11
2023-05-24T04:13:46.428Z,11.11
2023-05-24T04:14:52.311Z,11.18
2023-05-24T04:15:46.355Z,11.10
2023-05-24T04:16:46.407Z,11.11
2023-05-24T04:17:49.332Z,11.15
2023-05-24T04:18:46.367Z,11.12
2023-05-24T04:19:46.231Z,11.14
2023-05-24T04:20:46.202Z,11.08
2023-05-24T04:21:46.228Z,11.18
2023-05-24T04:22:46.209Z,11.14
2023-05-24T04:23:46.111Z,11.19
2023-05-24T04:24:46.083Z,11.22
2023-05-24T04:25:46.031Z,11.14
2023-05-24T04:26:46.006Z,11.23
2023-05-24T04:27:45.967Z,11.05
2023-05-24T04:28:45.987Z,11.07
2023-05-24T04:29:45.896Z,11.11
2023-05-24T04:30:45.863Z,11.07
2023-05-24T04:31:46.841Z,11.07
2023-05-24T04:32:45.826Z,11.12
2023-05-24T04:33:45.778Z,11.12
2023-05-24T04:34:46.016Z,11.11
2023-05-24T04:35:45.713Z,11.17
2023-05-24T04:36:45.693Z,11.12
2023-05-24T04:37:45.663Z,11.12
2023-05-24T04:38:45.616Z,11.17
2023-05-24T04:39:45.591Z,11.10
2023-05-24T04:40:45.620Z,11.11
2023-05-24T04:41:45.528Z,11.11
2023-05-24T04:42:45.480Z,11.11
2023-05-24T04:43:45.471Z,11.15
2023-05-24T04:44:45.412Z,11.19
2023-05-24T04:45:45.437Z,11.14
2023-05-24T04:46:45.401Z,11.22
2023-05-24T04:47:45.392Z,11.22
2023-05-24T04:48:45.281Z,11.30
2023-05-24T04:49:45.247Z,11.23
2023-05-24T04:50:45.215Z,11.19
2023-05-24T04:51:45.289Z,11.27
2023-05-24T04:52:45.221Z,11.23
2023-05-24T04:53:45.114Z,11.23
2023-05-24T04:54:45.081Z,11.08
2023-05-24T04:55:45.046Z,11.11
2023-05-24T04:56:45.026Z,11.14
2023-05-24T04:57:45.041Z,11.10
2023-05-24T04:58:44.952Z,11.18
2023-05-24T04:59:45.010Z,11.18
2023-05-24T05:00:44.905Z,11.19
2023-05-24T05:01:44.896Z,11.15
2023-05-24T05:02:44.895Z,11.29
2023-05-24T05:03:44.877Z,11.18
2023-05-24T05:04:44.902Z,11.15
2023-05-24T05:05:44.742Z,11.26
2023-05-24T05:06:44.701Z,11.10
2023-05-24T05:07:44.662Z,11.07
2023-05-24T05:08:44.627Z,11.12
2023-05-24T05:09:44.594Z,11.15
2023-05-24T05:10:44.648Z,11.08
2023-05-24T05:11:44.518Z,11.17
2023-05-24T05:12:44.493Z,11.17
2023-05-24T05:13:44.462Z,11.15
2023-05-24T05:14:44.431Z,11.17
2023-05-24T05:15:44.393Z,11.23
2023-05-24T05:16:44.427Z,11.23
2023-05-24T05:17:44.369Z,11.33
2023-05-24T05:18:44.299Z,11.25
2023-05-24T05:19:44.258Z,11.40
2023-05-24T05:20:44.419Z,11.43
2023-05-24T05:21:44.253Z,11.33
2023-05-24T05:22:44.155Z,11.35
2023-05-24T05:23:44.131Z,11.36
2023-05-24T05:24:44.091Z,11.37
2023-05-24T05:25:44.062Z,11.43
2023-05-24T05:26:44.084Z,11.40
2023-05-24T05:27:44.010Z,11.43
2023-05-24T05:28:44.028Z,11.43
2023-05-24T05:29:43.935Z,11.35
2023-05-24T05:30:44.058Z,11.32
2023-05-24T05:31:43.886Z,11.30
2023-05-24T05:32:44.001Z,11.36
2023-05-24T05:33:43.805Z,11.26
2023-05-24T05:34:43.772Z,11.43
2023-05-24T05:35:43.744Z,11.32
2023-05-24T05:36:43.709Z,11.43
2023-05-24T05:37:43.674Z,11.48
2023-05-24T05:38:43.715Z,11.35
2023-05-24T05:39:43.614Z,11.33
2023-05-24T05:40:43.697Z,11.25
2023-05-24T05:41:46.629Z,11.29
2023-05-24T05:42:43.517Z,11.44
2023-05-24T05:43:43.497Z,11.47
2023-05-24T05:44:43.509Z,11.55
2023-05-24T05:45:43.495Z,11.48
2023-05-24T05:46:43.386Z,11.45
2023-05-24T05:47:43.420Z,11.52
2023-05-24T05:48:46.215Z,11.51
2023-05-24T05:49:43.368Z,11.65
2023-05-24T05:50:43.447Z,11.57
2023-05-24T05:51:43.218Z,11.69
2023-05-24T05:52:43.190Z,11.55
2023-05-24T05:53:43.156Z,11.57
2023-05-24T05:54:43.179Z,11.65
2023-05-24T05:55:43.100Z,11.55
2023-05-24T05:56:43.054Z,11.65
2023-05-24T05:57:43.038Z,11.77
2023-05-24T05:58:43.003Z,11.77
2023-05-24T05:59:42.960Z,11.78
2023-05-24T06:00:43.047Z,11.84
2023-05-24T06:01:42.899Z,11.95
2023-05-24T06:02:42.909Z,12.00
2023-05-24T06:03:43.184Z,12.06
2023-05-24T06:04:42.855Z,12.06
2023-05-24T06:05:42.780Z,12.17
2023-05-24T06:06:42.816Z,12.24
2023-05-24T06:07:42.706Z,12.18
2023-05-24T06:08:42.680Z,12.06
2023-05-24T06:09:42.726Z,12.22
2023-05-24T06:10:42.867Z,12.27
2023-05-24T06:11:42.575Z,12.15
2023-05-24T06:12:42.601Z,12.15
2023-05-24T06:13:42.514Z,12.13
2023-05-24T06:14:42.486Z,12.03
2023-05-24T06:15:42.472Z,12.02
2023-05-24T06:16:42.481Z,11.97
2023-05-24T06:17:42.485Z,12.06
2023-05-24T06:18:50.024Z,12.10
2023-05-24T06:19:42.334Z,12.15
2023-05-24T06:20:42.553Z,12.10
2023-05-24T06:21:42.250Z,12.06
2023-05-24T06:22:42.228Z,12.04
2023-05-24T06:23:42.188Z,12.21
2023-05-24T06:24:42.221Z,12.28
2023-05-24T06:25:42.127Z,12.32
2023-05-24T06:26:42.116Z,12.36
2023-05-24T06:27:42.062Z,12.42
2023-05-24T06:28:42.050Z,12.45
2023-05-24T06:29:42.085Z,12.53
2023-05-24T06:30:42.230Z,12.54
2023-05-24T06:31:41.977Z,12.57
2023-05-24T06:32:41.958Z,12.46
2023-05-24T06:33:46.776Z,12.53
2023-05-24T06:34:41.997Z,12.55
2023-05-24T06:35:41.820Z,12.57
2023-05-24T06:36:41.782Z,12.72
2023-05-24T06:37:41.741Z,12.67
2023-05-24T06:38:41.714Z,12.72
2023-05-24T06:39:41.682Z,12.54
2023-05-24T06:40:41.942Z,12.58
2023-05-24T06:41:41.634Z,12.43
2023-05-24T06:42:41.603Z,12.47
2023-05-24T06:43:41.587Z,12.57
2023-05-24T06:44:41.534Z,12.55
2023-05-24T06:45:41.577Z,12.54
2023-05-24T06:46:41.535Z,12.67
2023-05-24T06:47:41.488Z,12.68
2023-05-24T06:48:41.494Z,12.78
2023-05-24T06:49:41.406Z,12.87
2023-05-24T06:50:42.826Z,12.98
2023-05-24T06:51:41.303Z,12.97
2023-05-24T06:52:41.327Z,13.03
2023-05-24T06:53:41.245Z,13.04
2023-05-24T06:54:41.220Z,13.05
2023-05-24T06:55:41.261Z,13.05
2023-05-24T06:56:41.140Z,12.93
2023-05-24T06:57:41.122Z,12.94
2023-05-24T06:58:41.141Z,12.97
2023-05-24T06:59:41.113Z,12.95
2023-05-24T07:00:41.352Z,12.90
2023-05-24T07:01:41.107Z,12.90
2023-05-24T07:02:40.991Z,12.86
2023-05-24T07:03:40.927Z,13.00
2023-05-24T07:04:41.054Z,13.04
2023-05-24T07:05:40.867Z,12.97
2023-05-24T07:06:40.844Z,12.76
2023-05-24T07:07:40.812Z,12.75
2023-05-24T07:08:40.778Z,12.83
2023-05-24T07:09:40.739Z,12.95
2023-05-24T07:10:41.234Z,13.13
2023-05-24T07:11:40.707Z,13.25
2023-05-24T07:12:40.665Z,13.20
2023-05-24T07:13:40.617Z,13.30
2023-05-24T07:14:40.586Z,13.31
2023-05-24T07:15:40.564Z,13.35
2023-05-24T07:16:40.628Z,13.25
2023-05-24T07:17:40.538Z,13.20
2023-05-24T07:18:40.459Z,13.30
2023-05-24T07:19:40.420Z,13.42
2023-05-24T07:20:40.670Z,13.41
2023-05-24T07:21:40.377Z,13.31
2023-05-24T07:22:40.390Z,13.37
2023-05-24T07:23:40.296Z,13.47
2023-05-24T07:24:40.277Z,13.54
2023-05-24T07:25:40.251Z,13.52
2023-05-24T07:26:40.231Z,13.42
2023-05-24T07:27:40.178Z,13.38
2023-05-24T07:28:40.205Z,13.30
2023-05-24T07:29:40.116Z,13.31
2023-05-24T07:30:40.081Z,13.37
2023-05-24T07:31:40.155Z,13.33
2023-05-24T07:32:40.083Z,13.25
2023-05-24T07:33:39.991Z,13.22
2023-05-24T07:34:40.028Z,13.25
2023-05-24T07:35:39.957Z,13.30
2023-05-24T07:36:39.896Z,13.39
2023-05-24T07:37:39.882Z,13.54
2023-05-24T07:38:39.842Z,13.68
2023-05-24T07:39:39.815Z,13.68
2023-05-24T07:40:39.937Z,13.86
2023-05-24T07:41:39.748Z,13.90
2023-05-24T07:42:39.719Z,14.00
2023-05-24T07:43:39.694Z,14.12
2023-05-24T07:44:39.662Z,14.11
2023-05-24T07:45:39.778Z,14.15
2023-05-24T07:46:39.681Z,14.18
2023-05-24T07:47:39.610Z,14.04
2023-05-24T07:48:39.538Z,14.04
2023-05-24T07:49:39.507Z,13.93
2023-05-24T07:50:39.484Z,13.99
2023-05-24T07:51:39.456Z,13.93
2023-05-24T07:52:39.483Z,13.99
2023-05-24T07:53:39.415Z,14.05
2023-05-24T07:54:39.381Z,14.18
2023-05-24T07:55:39.329Z,14.14
2023-05-24T07:56:39.294Z,14.15
2023-05-24T07:57:39.262Z,14.15
2023-05-24T07:58:39.306Z,14.26
2023-05-24T07:59:39.202Z,14.26
2023-05-24T08:00:39.165Z,14.15
2023-05-24T08:01:39.154Z,14.15
2023-05-24T08:02:39.214Z,14.15
2023-05-24T08:03:39.981Z,14.28
2023-05-24T08:04:39.109Z,14.45
2023-05-24T08:05:39.022Z,14.59
2023-05-24T08:06:39.007Z,14.69
2023-05-24T08:07:38.964Z,14.73
2023-05-24T08:08:38.938Z,14.69
2023-05-24T08:09:38.963Z,14.77
2023-05-24T08:10:38.883Z,14.66
2023-05-24T08:11:38.844Z,14.60
2023-05-24T08:12:38.813Z,14.78
2023-05-24T08:13:38.783Z,14.77
2023-05-24T08:14:38.744Z,14.82
2023-05-24T08:15:38.775Z,14.86
2023-05-24T08:16:38.712Z,14.99
2023-05-24T08:17:38.777Z,15.04
2023-05-24T08:18:38.630Z,15.15
2023-05-24T08:19:38.652Z,15.04
2023-05-24T08:20:38.813Z,14.82
2023-05-24T08:21:38.590Z,14.73
2023-05-24T08:22:38.620Z,14.69
2023-05-24T08:23:38.487Z,14.89
2023-05-24T08:24:38.449Z,14.78
2023-05-24T08:25:38.420Z,14.85
2023-05-24T08:26:38.391Z,14.99
2023-05-24T08:27:38.422Z,15.03
2023-05-24T08:28:38.438Z,15.14
2023-05-24T08:29:38.345Z,15.21
2023-05-24T08:30:38.275Z,15.15
2023-05-24T08:31:38.287Z,15.21
2023-05-24T08:32:38.408Z,15.42
2023-05-24T08:33:38.243Z,15.49
2023-05-24T08:34:38.168Z,15.72
2023-05-24T08:35:38.325Z,15.76
2023-05-24T08:36:38.099Z,15.80
2023-05-24T08:37:38.072Z,15.98
2023-05-24T08:38:38.037Z,16.05
2023-05-24T08:39:38.072Z,16.29
2023-05-24T08:40:37.994Z,16.42
2023-05-24T08:41:37.950Z,16.47
2023-05-24T08:42:37.938Z,16.60
2023-05-24T08:43:37.913Z,16.58
2023-05-24T08:44:37.891Z,16.53
2023-05-24T08:45:37.999Z,16.56
2023-05-24T08:46:37.856Z,16.69
2023-05-24T08:47:37.804Z,16.75
2023-05-24T08:48:37.850Z,16.74
2023-05-24T08:49:37.721Z,16.89
2023-05-24T08:50:37.692Z,16.79
2023-05-24T08:51:37.827Z,16.76
2023-05-24T08:52:37.661Z,16.66
2023-05-24T08:53:37.623Z,16.54
2023-05-24T08:54:37.600Z,16.31
2023-05-24T08:55:37.563Z,16.32
2023-05-24T08:56:37.563Z,16.42
2023-05-24T08:57:37.555Z,16.43
2023-05-24T08:58:37.471Z,16.53
2023-05-24T08:59:37.459Z,16.51
2023-05-24T09:00:37.418Z,16.53
2023-05-24T09:01:37.405Z,16.50
2023-05-24T09:02:37.365Z,16.32
2023-05-24T09:03:37.758Z,16.32
2023-05-24T09:04:37.302Z,16.01
2023-05-24T09:05:37.276Z,16.02
2023-05-24T09:06:37.248Z,15.79
2023-05-24T09:07:37.372Z,15.82
2023-05-24T09:08:37.220Z,15.73
2023-05-24T09:09:37.218Z,15.62
2023-05-24T09:10:49.263Z,15.55
2023-05-24T09:11:39.380Z,15.42
2023-05-24T09:12:38.764Z,15.37
2023-05-24T09:13:37.041Z,15.44
2023-05-24T09:14:37.062Z,15.42
2023-05-24T09:15:37.006Z,15.22
2023-05-24T09:16:37.094Z,15.09
2023-05-24T09:17:37.120Z,15.02
2023-05-24T09:18:36.921Z,15.02
2023-05-24T09:19:37.479Z,14.97
2023-05-24T09:20:37.164Z,15.09
2023-05-24T09:21:36.820Z,15.11
2023-05-24T09:22:39.590Z,15.21
2023-05-24T09:23:36.775Z,15.35
2023-05-24T09:24:36.741Z,15.07
2023-05-24T09:25:36.708Z,14.96
2023-05-24T09:26:36.742Z,14.78
2023-05-24T09:27:36.652Z,14.50
2023-05-24T09:28:36.612Z,14.36
2023-05-24T09:29:36.601Z,14.26
2023-05-24T09:30:36.579Z,14.32
2023-05-24T09:31:36.562Z,14.47
2023-05-24T09:32:36.579Z,14.47
2023-05-24T09:33:36.465Z,14.68
2023-05-24T09:34:36.433Z,14.68
2023-05-24T09:35:36.399Z,14.72
2023-05-24T09:36:36.370Z,14.45
2023-05-24T09:37:36.347Z,14.44
2023-05-24T09:38:36.766Z,14.44
2023-05-24T09:39:36.307Z,14.72
2023-05-24T09:40:36.259Z,14.99
2023-05-24T09:41:36.225Z,15.07
2023-05-24T09:42:36.220Z,15.31
2023-05-24T09:43:36.244Z,15.27
2023-05-24T09:44:36.197Z,15.15
2023-05-24T09:45:36.102Z,15.07
2023-05-24T09:46:36.142Z,15.00
2023-05-24T09:47:36.057Z,15.14
2023-05-24T09:48:36.019Z,15.47
2023-05-24T09:49:36.060Z,15.76
2023-05-24T09:50:36.001Z,16.08
2023-05-24T09:51:35.994Z,16.42
2023-05-24T09:52:36.081Z,16.58
2023-05-24T09:53:35.890Z,16.68
2023-05-24T09:54:35.850Z,16.96
2023-05-24T09:55:36.047Z,17.01
2023-05-24T09:56:36.498Z,16.49
2023-05-24T09:57:35.770Z,16.38
2023-05-24T09:58:35.741Z,16.20
2023-05-24T09:59:35.724Z,16.08
2023-05-24T10:00:35.675Z,15.90
2023-05-24T10:01:35.880Z,16.09
2023-05-24T10:02:41.590Z,16.23
2023-05-24T10:03:35.762Z,16.35
2023-05-24T10:04:35.587Z,16.53
2023-05-24T10:05:35.570Z,16.75
2023-05-24T10:06:35.504Z,16.87
2023-05-24T10:07:35.548Z,17.12
2023-05-24T10:08:35.455Z,17.33
2023-05-24T10:09:35.428Z,17.11
2023-05-24T10:10:35.405Z,17.08
2023-05-24T10:11:43.045Z,16.99
2023-05-24T10:12:35.338Z,16.72
2023-05-24T10:13:35.594Z,16.74
2023-05-24T10:14:35.297Z,16.86
2023-05-24T10:15:35.257Z,17.01
2023-05-24T10:16:36.060Z,17.02
2023-05-24T10:17:35.236Z,17.09
2023-05-24T10:18:35.212Z,17.29
2023-05-24T10:19:35.199Z,17.42
2023-05-24T10:20:35.176Z,17.65
2023-05-24T10:21:35.240Z,17.76
2023-05-24T10:22:35.072Z,17.85
2023-05-24T10:23:35.038Z,17.87
2023-05-24T10:24:35.007Z,17.97
2023-05-24T10:25:35.070Z,17.67
2023-05-24T10:26:34.958Z,17.54
2023-05-24T10:27:34.921Z,17.54
2023-05-24T10:28:34.905Z,17.36
2023-05-24T10:29:34.876Z,17.38
2023-05-24T10:30:34.893Z,17.45
2023-05-24T10:31:34.884Z,17.54
2023-05-24T10:32:34.812Z,17.19
2023-05-24T10:33:34.770Z,17.05
2023-05-24T10:34:34.733Z,16.91
2023-05-24T10:35:34.707Z,16.64
2023-05-24T10:36:34.685Z,16.66
2023-05-24T10:37:34.706Z,16.66
2023-05-24T10:38:34.620Z,16.53
2023-05-24T10:39:34.654Z,16.68
2023-05-24T10:40:34.578Z,16.58
2023-05-24T10:41:34.581Z,16.78
2023-05-24T10:42:34.531Z,16.93
2023-05-24T10:43:34.482Z,17.24
2023-05-24T10:44:34.535Z,17.16
2023-05-24T10:45:34.431Z,17.02
2023-05-24T10:46:34.448Z,16.89
2023-05-24T10:47:35.381Z,16.72
2023-05-24T10:48:34.360Z,16.74
2023-05-24T10:49:34.330Z,16.71
2023-05-24T10:50:34.343Z,17.01
2023-05-24T10:51:34.285Z,17.22
2023-05-24T10:52:34.240Z,17.27
2023-05-24T10:53:34.215Z,17.56
2023-05-24T10:54:34.191Z,17.44
2023-05-24T10:55:34.198Z,17.60
2023-05-24T10:56:34.136Z,17.92
2023-05-24T10:57:34.133Z,18.10
2023-05-24T10:58:34.103Z,18.31
2023-05-24T10:59:34.047Z,18.45
2023-05-24T11:00:48.351Z,18.66
2023-05-24T11:01:34.174Z,18.77
2023-05-24T11:02:34.080Z,19.00
2023-05-24T11:03:33.984Z,19.29
2023-05-24T11:04:33.926Z,19.41
2023-05-24T11:05:33.925Z,19.44
2023-05-24T11:06:34.021Z,19.47
2023-05-24T11:07:33.837Z,19.52
2023-05-24T11:08:33.802Z,19.55
2023-05-24T11:09:33.817Z,19.64
2023-05-24T11:10:33.748Z,19.85
2023-05-24T11:11:33.731Z,19.91
2023-05-24T11:12:33.798Z,19.94
2023-05-24T11:13:33.703Z,20.06
2023-05-24T11:14:33.656Z,20.10
2023-05-24T11:15:33.630Z,20.10
2023-05-24T11:16:33.659Z,19.86
2023-05-24T11:17:33.618Z,19.94
2023-05-24T11:18:33.615Z,19.96
2023-05-24T11:19:33.554Z,19.99
2023-05-24T11:20:33.534Z,19.99
2023-05-24T11:21:33.475Z,20.11
2023-05-24T11:22:33.455Z,20.16
2023-05-24T11:23:34.469Z,20.29
2023-05-24T11:24:33.463Z,20.48
2023-05-24T11:25:33.380Z,20.51
2023-05-24T11:26:33.394Z,20.58
2023-05-24T11:27:33.350Z,20.60
2023-05-24T11:28:33.344Z,20.60
2023-05-24T11:29:34.322Z,20.50
2023-05-24T11:30:33.302Z,20.39
2023-05-24T11:31:33.283Z,20.59
2023-05-24T11:32:33.233Z,20.62
2023-05-24T11:33:33.185Z,20.66
2023-05-24T11:34:33.153Z,20.81
2023-05-24T11:35:33.132Z,20.85
2023-05-24T11:36:33.275Z,20.81
2023-05-24T11:37:45.521Z,20.84
2023-05-24T11:38:33.049Z,20.78
2023-05-24T11:39:33.061Z,21.00
2023-05-24T11:40:33.016Z,21.03
2023-05-24T11:41:32.981Z,20.97
2023-05-24T11:42:33.566Z,20.90
2023-05-24T11:43:32.943Z,20.95
2023-05-24T11:44:32.906Z,21.03
2023-05-24T11:45:32.893Z,20.97
2023-05-24T11:46:32.909Z,21.02
2023-05-24T11:47:32.893Z,21.07
2023-05-24T11:48:32.862Z,21.00
2023-05-24T11:49:32.787Z,21.02
2023-05-24T11:50:39.058Z,20.81
2023-05-24T11:51:32.844Z,20.62
2023-05-24T11:52:32.716Z,19.66
2023-05-24T11:53:32.748Z,19.24
2023-05-24T11:54:32.717Z,19.16
2023-05-24T11:55:32.649Z,19.44
2023-05-24T11:56:33.834Z,19.67
2023-05-24T11:57:32.597Z,19.76
2023-05-24T11:58:32.687Z,19.88
2023-05-24T11:59:32.553Z,20.03
2023-05-24T12:00:32.529Z,20.13
2023-05-24T12:01:32.500Z,20.19
2023-05-24T12:02:32.577Z,20.24
2023-05-24T12:03:32.676Z,20.44
2023-05-24T12:05:32.418Z,20.26
2023-05-24T12:06:32.374Z,20.11
2023-05-24T12:07:32.352Z,20.14
2023-05-24T12:08:32.327Z,20.16
2023-05-24T12:09:32.308Z,20.11
2023-05-24T12:10:32.336Z,20.04
2023-05-24T12:11:32.269Z,19.89
2023-05-24T12:12:42.517Z,19.88
2023-05-24T12:13:32.217Z,19.79
2023-05-24T12:14:32.256Z,19.16
2023-05-24T12:15:32.297Z,18.88
2023-05-24T12:16:32.231Z,18.86
2023-05-24T12:17:32.146Z,18.89
2023-05-24T12:18:32.274Z,18.88
2023-05-24T12:19:33.981Z,18.86
2023-05-24T12:20:32.125Z,18.92
2023-05-24T12:21:32.009Z,18.80
2023-05-24T12:22:32.021Z,18.83
2023-05-24T12:23:31.968Z,18.95
2023-05-24T12:24:31.935Z,19.15
2023-05-24T12:25:31.972Z,19.37
2023-05-24T12:26:31.886Z,18.84
2023-05-24T12:27:31.858Z,18.59
2023-05-24T12:28:31.826Z,18.77
2023-05-24T12:29:31.812Z,19.14
2023-05-24T12:30:31.776Z,19.45
2023-05-24T12:31:31.808Z,19.71
2023-05-24T12:32:31.822Z,19.81
2023-05-24T12:33:31.728Z,19.71
2023-05-24T12:34:31.691Z,19.73
2023-05-24T12:35:31.650Z,19.81
2023-05-24T12:36:32.473Z,19.70
2023-05-24T12:37:31.666Z,19.48
2023-05-24T12:38:31.580Z,19.52
2023-05-24T12:39:31.946Z,19.64
2023-05-24T12:40:31.542Z,19.84
2023-05-24T12:41:31.524Z,19.88
2023-05-24T12:42:31.462Z,20.00
2023-05-24T12:43:31.497Z,20.13
2023-05-24T12:44:31.446Z,20.13
2023-05-24T12:45:31.400Z,19.95
2023-05-24T12:46:31.368Z,19.95
2023-05-24T12:47:31.350Z,19.76
2023-05-24T12:48:31.316Z,19.55
2023-05-24T12:49:31.954Z,19.51
2023-05-24T12:50:31.259Z,19.49
2023-05-24T12:51:31.233Z,19.51
2023-05-24T12:52:31.208Z,19.62
2023-05-24T12:53:31.200Z,19.55
2023-05-24T12:54:31.177Z,19.40